Time;durP1;ratioP1;P1;durP2;ratioP2;P2;SDS_P1;SDS_P2;PMS_P1;PMS_P2;Temp;Humidity;BMP_temperature;BMP_pressure;BME280_temperature;BME280_humidity;BME280_pressure;Samples;Min_cycle;Max_cycle;Signal;HPM_P1;HPM_P2
2022/09/20 00:01:27;;;;;;;4.73;0.70;;;11.70;77.20;;;;;;5075733;28;20293;-70
2022/09/20 00:03:58;;;;;;;5.07;0.50;;;11.70;77.10;;;;;;5087527;28;20771;-70
2022/09/20 00:06:29;;;;;;;8.40;0.60;;;11.60;76.80;;;;;;5084850;28;20048;-70
2022/09/20 00:08:56;;;;;;;4.17;0.40;;;11.70;76.60;;;;;;5060269;28;20283;-70
2022/09/20 00:11:24;;;;;;;5.93;0.77;;;11.70;76.10;;;;;;5078013;28;20357;-70
2022/09/20 00:13:54;;;;;;;5.13;0.63;;;11.70;75.70;;;;;;5080731;28;20267;-70
2022/09/20 00:16:23;;;;;;;6.30;0.37;;;11.80;75.40;;;;;;5064969;28;20282;-70
2022/09/20 00:18:50;;;;;;;4.80;0.40;;;11.80;74.70;;;;;;5085857;28;20290;-70
2022/09/20 00:21:18;;;;;;;6.70;0.60;;;11.90;74.30;;;;;;5054602;28;20282;-70
2022/09/20 00:23:44;;;;;;;5.57;0.50;;;11.90;74.60;;;;;;5068228;28;20324;-70
2022/09/20 00:26:10;;;;;;;7.60;1.00;;;12.00;74.30;;;;;;5084701;28;20282;-71
2022/09/20 00:28:36;;;;;;;8.10;0.77;;;12.00;74.50;;;;;;5087076;28;20744;-70
2022/09/20 00:31:02;;;;;;;5.73;0.60;;;12.00;74.30;;;;;;5081131;28;20473;-70
2022/09/20 00:35:06;;;;;;;6.13;0.50;;;12.10;74.90;;;;;;5076843;28;20051;-70
2022/09/20 00:36:13;;;;;;;;;;;12.00;75.30;;;;;;5069267;28;20331;-70
2022/09/20 00:38:39;;;;;;;5.23;0.50;;;11.90;76.20;;;;;;5059944;28;19920;-70
2022/09/20 00:41:05;;;;;;;5.37;0.43;;;11.90;76.20;;;;;;5049308;28;20044;-70
2022/09/20 00:43:49;;;;;;;6.13;0.60;;;11.80;76.10;;;;;;5069223;28;20355;-70
2022/09/20 00:46:38;;;;;;;2.83;0.50;;;11.80;75.80;;;;;;5074782;28;20279;-70
2022/09/20 00:49:12;;;;;;;5.70;0.60;;;11.80;74.90;;;;;;5065374;28;20353;-70
2022/09/20 00:51:44;;;;;;;5.88;0.40;;;11.80;74.70;;;;;;5085764;28;20681;-70
2022/09/20 00:54:11;;;;;;;3.23;0.30;;;11.80;74.00;;;;;;5077213;28;20101;-70
2022/09/20 00:56:42;;;;;;;4.83;0.40;;;11.90;73.80;;;;;;5068383;28;20282;-70
2022/09/20 00:59:22;;;;;;;6.27;0.40;;;11.90;73.60;;;;;;5071270;28;20638;-70
2022/09/20 01:01:55;;;;;;;2.00;0.40;;;11.80;73.70;;;;;;5086019;28;20676;-70
2022/09/20 01:04:25;;;;;;;4.07;0.37;;;11.90;73.90;;;;;;5084701;28;20309;-70
2022/09/20 01:06:54;;;;;;;6.60;0.60;;;11.90;73.80;;;;;;5077161;28;20345;-70
2022/09/20 01:09:20;;;;;;;8.63;0.97;;;11.90;74.30;;;;;;5078255;28;20795;-70
2022/09/20 01:11:46;;;;;;;4.87;0.80;;;11.80;75.00;;;;;;5068031;28;20286;-70
2022/09/20 01:14:15;;;;;;;8.07;0.60;;;11.70;75.50;;;;;;5056278;28;20552;-70
2022/09/20 01:16:41;;;;;;;7.70;0.60;;;11.70;75.70;;;;;;5082386;28;20317;-70
2022/09/20 01:19:25;;;;;;;4.53;0.40;;;11.60;75.90;;;;;;5063977;28;20338;-70
2022/09/20 01:21:53;;;;;;;3.37;0.60;;;11.50;76.10;;;;;;5062706;28;20422;-70
2022/09/20 01:24:46;;;;;;;1.90;0.50;;;11.40;76.30;;;;;;5082197;28;20295;-70
2022/09/20 01:28:01;;;;;;;1.53;0.37;;;11.40;76.20;;;;;;5084133;28;20665;-70
2022/09/20 01:30:55;;;;;;;6.00;0.50;;;11.40;76.20;;;;;;5031106;28;20286;-70
2022/09/20 01:33:34;;;;;;;4.93;0.40;;;11.30;76.30;;;;;;5040291;28;20275;-70
2022/09/20 01:36:02;;;;;;;2.53;0.43;;;11.20;76.30;;;;;;5070617;28;20277;-70
2022/09/20 01:39:13;;;;;;;7.23;0.40;;;11.20;76.50;;;;;;5081207;28;20294;-70
2022/09/20 01:42:00;;;;;;;3.83;0.83;;;11.20;76.70;;;;;;5061682;28;20373;-70
2022/09/20 01:44:45;;;;;;;4.73;0.37;;;11.10;77.10;;;;;;5078750;28;20290;-70
2022/09/20 01:47:49;;;;;;;4.13;0.60;;;11.10;77.10;;;;;;5085993;28;20887;-70
2022/09/20 01:50:36;;;;;;;4.33;0.80;;;11.10;77.30;;;;;;5066660;28;20278;-70
2022/09/20 01:53:25;;;;;;;7.00;0.60;;;11.10;77.30;;;;;;5066959;28;20328;-70
2022/09/20 01:56:21;;;;;;;2.67;0.30;;;11.10;77.30;;;;;;5083810;28;20687;-70
2022/09/20 01:59:11;;;;;;;4.80;0.82;;;11.10;77.30;;;;;;5084501;28;20778;-70
2022/09/20 02:01:58;;;;;;;2.73;0.40;;;11.10;77.00;;;;;;5068626;28;20044;-70
2022/09/20 02:04:52;;;;;;;5.43;0.43;;;11.10;76.50;;;;;;5088938;28;20278;-70
2022/09/20 02:07:46;;;;;;;4.70;0.30;;;11.20;76.70;;;;;;5082533;28;20318;-70
2022/09/20 02:10:24;;;;;;;2.20;0.50;;;11.20;76.90;;;;;;5079307;28;20795;-70
2022/09/20 02:12:55;;;;;;;6.17;0.50;;;11.10;76.90;;;;;;5064823;28;20787;-70
2022/09/20 02:15:41;;;;;;;3.40;0.30;;;11.10;77.10;;;;;;5074489;28;20301;-70
2022/09/20 02:18:12;;;;;;;;;;;11.10;77.40;;;;;;5091098;28;20278;-70
2022/09/20 02:20:44;;;;;;;1.30;0.20;;;11.00;77.80;;;;;;5083129;28;19925;-70
2022/09/20 02:23:45;;;;;;;2.43;0.40;;;10.90;78.30;;;;;;5090013;28;20780;-70
2022/09/20 02:26:33;;;;;;;3.37;0.40;;;10.90;78.50;;;;;;5006105;28;20300;-70
2022/09/20 02:29:30;;;;;;;3.97;0.50;;;10.90;78.80;;;;;;5079515;28;20290;-70
2022/09/20 02:32:35;;;;;;;3.97;0.60;;;10.90;78.90;;;;;;5067614;28;20274;-70
2022/09/20 02:35:04;;;;;;;2.70;0.33;;;10.90;79.00;;;;;;5087262;28;20313;-70
2022/09/20 02:37:49;;;;;;;8.90;0.77;;;11.00;79.20;;;;;;5068902;28;20321;-70
2022/09/20 02:40:29;;;;;;;4.10;0.50;;;11.00;79.40;;;;;;5082548;28;20842;-70
2022/09/20 02:43:21;;;;;;;6.57;0.40;;;11.00;79.50;;;;;;5083851;28;20273;-70
2022/09/20 02:46:08;;;;;;;4.30;0.30;;;11.10;80.30;;;;;;5084500;28;20770;-70
2022/09/20 02:49:13;;;;;;;2.27;0.70;;;11.10;80.60;;;;;;5093589;28;20298;-70
2022/09/20 02:51:45;;;;;;;4.00;1.27;;;11.10;81.20;;;;;;5080691;28;20277;-70
2022/09/20 02:54:36;;;;;;;3.50;0.40;;;11.00;82.00;;;;;;5061376;28;20328;-71
2022/09/20 02:57:27;;;;;;;3.23;0.83;;;11.00;82.20;;;;;;5084459;28;20788;-70
2022/09/20 03:00:05;;;;;;;5.27;0.93;;;11.00;83.40;;;;;;5072290;28;20646;-70
2022/09/20 03:03:05;;;;;;;3.70;0.67;;;10.90;83.60;;;;;;5088563;28;20326;-70
2022/09/20 03:06:03;;;;;;;8.53;0.43;;;10.90;83.60;;;;;;5092132;28;20281;-70
2022/09/20 03:08:46;;;;;;;3.37;0.60;;;10.80;84.20;;;;;;5069755;28;20631;-70
2022/09/20 03:11:24;;;;;;;2.93;0.43;;;10.80;85.00;;;;;;5070858;28;20813;-70
2022/09/20 03:14:07;;;;;;;3.30;0.33;;;10.80;85.00;;;;;;5092576;28;20284;-70
2022/09/20 03:17:11;;;;;;;3.17;0.53;;;10.70;85.30;;;;;;5085159;28;20849;-70
2022/09/20 03:19:55;;;;;;;6.13;0.33;;;10.70;86.00;;;;;;5080253;28;20781;-70
2022/09/20 03:22:58;;;;;;;1.70;0.33;;;10.60;86.20;;;;;;5068499;28;20282;-70
2022/09/20 03:26:03;;;;;;;4.37;0.73;;;10.60;86.20;;;;;;5086452;28;20290;-70
2022/09/20 03:28:53;;;;;;;3.07;0.23;;;10.60;86.50;;;;;;5018913;28;20315;-70
2022/09/20 03:31:30;;;;;;;3.40;0.83;;;10.50;87.00;;;;;;5013460;28;20540;-70
2022/09/20 03:34:02;;;;;;;4.63;0.80;;;10.50;87.60;;;;;;5052278;28;20290;-70
2022/09/20 03:36:33;;;;;;;3.43;0.77;;;10.50;87.50;;;;;;5086756;28;20330;-70
2022/09/20 03:39:04;;;;;;;1.93;0.30;;;10.50;87.70;;;;;;5068944;28;20335;-70
2022/09/20 03:41:52;;;;;;;4.13;0.50;;;10.40;87.60;;;;;;5095890;28;20698;-70
2022/09/20 03:44:45;;;;;;;3.73;0.80;;;10.40;87.60;;;;;;5078707;28;20838;-70
2022/09/20 03:47:56;;;;;;;4.33;0.37;;;10.40;87.70;;;;;;5071411;28;20356;-70
2022/09/20 03:50:54;;;;;;;2.47;0.30;;;10.40;87.80;;;;;;5082544;28;20296;-70
2022/09/20 03:53:39;;;;;;;3.43;0.40;;;10.40;87.70;;;;;;5085834;28;20686;-70
2022/09/20 03:56:35;;;;;;;5.57;0.50;;;10.40;87.70;;;;;;5079046;28;20346;-70
2022/09/20 03:59:24;;;;;;;2.13;0.40;;;10.40;87.60;;;;;;5085862;28;20095;-70
2022/09/20 04:02:22;;;;;;;3.83;0.37;;;10.40;87.60;;;;;;5086490;28;20325;-70
2022/09/20 04:05:01;;;;;;;4.87;0.47;;;10.40;87.50;;;;;;5086031;28;20290;-70
2022/09/20 04:08:00;;;;;;;5.40;0.77;;;10.30;87.60;;;;;;5089808;28;20310;-71
2022/09/20 04:10:58;;;;;;;4.73;0.50;;;10.30;87.50;;;;;;5092178;28;20278;-71
2022/09/20 04:13:24;;;;;;;4.90;0.70;;;10.30;87.50;;;;;;5088999;28;20286;-71
2022/09/20 04:16:16;;;;;;;2.50;0.90;;;10.30;87.30;;;;;;5070073;28;20359;-71
2022/09/20 04:18:56;;;;;;;7.53;0.87;;;10.30;87.50;;;;;;5086030;28;20048;-71
2022/09/20 04:21:25;;;;;;;6.03;0.83;;;10.30;87.50;;;;;;5070761;28;20565;-71
2022/09/20 04:24:29;;;;;;;1.33;0.50;;;10.30;87.60;;;;;;5081102;28;20636;-70
2022/09/20 04:27:24;;;;;;;5.10;0.70;;;10.30;87.30;;;;;;5032422;28;20301;-70
2022/09/20 04:30:17;;;;;;;3.42;0.85;;;10.30;87.60;;;;;;5055745;28;20277;-70
2022/09/20 04:32:58;;;;;;;3.65;0.70;;;10.40;87.40;;;;;;5088319;28;20075;-70
2022/09/20 04:38:36;;;;;;;8.17;0.90;;;10.40;87.80;;;;;;5080902;28;20298;-70
2022/09/20 04:41:23;;;;;;;4.78;1.00;;;10.50;88.70;;;;;;5076040;28;20750;-71
2022/09/20 04:44:08;;;;;;;6.90;0.93;;;10.50;89.10;;;;;;5065082;28;20407;-71
2022/09/20 04:46:45;;;;;;;4.63;1.00;;;10.50;89.80;;;;;;5056431;28;20068;-71
2022/09/20 04:49:36;;;;;;;9.50;0.77;;;10.50;90.60;;;;;;5080009;28;20650;-71
2022/09/20 04:52:11;;;;;;;6.82;1.35;;;10.50;90.70;;;;;;5076677;28;20341;-71
2022/09/20 04:55:14;;;;;;;7.43;1.02;;;10.50;90.80;;;;;;5084404;28;20067;-71
2022/09/20 04:58:00;;;;;;;6.50;1.55;;;10.60;91.00;;;;;;5080217;28;20055;-70
2022/09/20 05:00:46;;;;;;;10.35;1.58;;;10.60;91.00;;;;;;5080744;28;20112;-71
2022/09/20 05:03:28;;;;;;;5.40;1.00;;;10.60;91.50;;;;;;5075933;28;20430;-71
2022/09/20 05:06:42;;;;;;;6.15;0.90;;;10.60;91.60;;;;;;5083869;28;20278;-71
2022/09/20 05:09:52;;;;;;;6.35;1.52;;;10.60;91.40;;;;;;5077811;28;20133;-71
2022/09/20 05:12:53;;;;;;;4.27;0.80;;;10.50;91.10;;;;;;5039180;28;20566;-70
2022/09/20 05:15:44;;;;;;;6.97;1.13;;;10.50;91.10;;;;;;5067648;28;20287;-71
2022/09/20 05:18:15;;;;;;;4.22;1.13;;;10.50;91.10;;;;;;5083707;28;20626;-70
2022/09/20 05:21:06;;;;;;;4.82;0.90;;;10.50;91.40;;;;;;5066645;28;20041;-70
2022/09/20 05:23:35;;;;;;;4.07;1.00;;;10.50;91.00;;;;;;5060596;28;20087;-71
2022/09/20 05:26:33;;;;;;;5.45;0.80;;;10.50;90.80;;;;;;5081048;28;20833;-71
2022/09/20 05:29:08;;;;;;;5.50;0.73;;;10.50;90.90;;;;;;5030907;28;20445;-71
2022/09/20 05:32:02;;;;;;;3.75;1.20;;;10.50;90.80;;;;;;5066253;28;20048;-71
2022/09/20 05:35:06;;;;;;;6.55;0.80;;;10.50;90.70;;;;;;5083724;28;20122;-71
2022/09/20 05:37:58;;;;;;;7.78;1.15;;;10.60;90.50;;;;;;4998274;28;20037;-71
2022/09/20 05:41:03;;;;;;;3.07;0.80;;;10.60;90.60;;;;;;5001257;28;20041;-71
2022/09/20 05:43:31;;;;;;;5.80;1.30;;;10.60;90.50;;;;;;5069330;28;20335;-71
2022/09/20 05:46:34;;;;;;;7.90;1.00;;;10.60;90.50;;;;;;5066587;28;20320;-71
2022/09/20 05:49:37;;;;;;;7.13;0.87;;;10.60;90.50;;;;;;5084885;28;20306;-71
2022/09/20 05:52:24;;;;;;;4.20;1.07;;;10.60;90.50;;;;;;5081487;28;20280;-71
2022/09/20 05:55:34;;;;;;;3.83;0.83;;;10.70;90.30;;;;;;5066831;28;20361;-71
2022/09/20 05:58:13;;;;;;;7.23;0.77;;;10.70;90.30;;;;;;4986557;28;20288;-71
2022/09/20 06:00:51;;;;;;;3.50;0.70;;;10.70;90.10;;;;;;5072175;28;20610;-71
2022/09/20 06:03:42;;;;;;;6.10;0.67;;;10.80;90.20;;;;;;5086012;28;20778;-71
2022/09/20 06:06:25;;;;;;;4.27;0.60;;;10.80;90.00;;;;;;5077079;28;20394;-71
2022/09/20 06:09:10;;;;;;;4.10;1.20;;;10.90;90.00;;;;;;5088184;28;20351;-71
2022/09/20 06:11:58;;;;;;;6.45;0.77;;;11.00;89.60;;;;;;5087963;28;20321;-71
2022/09/20 06:14:39;;;;;;;1.93;0.60;;;11.00;89.20;;;;;;5071074;28;20153;-71
2022/09/20 06:17:20;;;;;;;6.33;1.20;;;11.00;89.20;;;;;;5079608;28;20347;-71
2022/09/20 06:20:23;;;;;;;4.60;1.10;;;11.00;88.90;;;;;;5068870;28;20290;-71
2022/09/20 06:22:53;;;;;;;4.27;1.27;;;11.00;88.30;;;;;;5088398;28;20591;-71
2022/09/20 06:25:44;;;;;;;4.40;1.00;;;11.00;88.60;;;;;;5088967;28;20712;-71
2022/09/20 06:28:19;;;;;;;5.33;1.10;;;11.00;88.70;;;;;;5088139;28;20387;-71
2022/09/20 06:30:49;;;;;;;8.47;1.40;;;11.00;88.50;;;;;;5088243;28;20282;-71
2022/09/20 06:33:17;;;;;;;13.17;1.70;;;11.10;88.10;;;;;;5087310;28;20336;-71
2022/09/20 06:42:10;;;;;;;3.63;0.68;;;11.10;87.90;;;;;;5021936;28;20718;-71
2022/09/20 06:44:40;;;;;;;9.43;1.80;;;11.20;87.30;;;;;;5070123;28;20071;-71
2022/09/20 06:47:08;;;;;;;8.73;1.10;;;11.20;87.40;;;;;;5056105;28;20073;-71
2022/09/20 06:49:34;;;;;;;7.87;1.23;;;11.20;87.20;;;;;;5075482;28;20288;-71
2022/09/20 06:52:05;;;;;;;5.10;0.87;;;11.20;86.70;;;;;;5070757;28;20286;-72
2022/09/20 06:54:31;;;;;;;4.10;1.00;;;11.30;86.50;;;;;;5070329;28;20698;-72
2022/09/20 06:57:01;;;;;;;6.50;0.70;;;11.40;86.80;;;;;;5070541;28;20319;-72
2022/09/20 06:59:27;;;;;;;3.40;0.77;;;11.40;86.90;;;;;;5086923;28;20266;-73
2022/09/20 07:01:53;;;;;;;4.73;0.90;;;11.50;87.00;;;;;;5089455;28;20313;-72
2022/09/20 07:04:19;;;;;;;2.90;0.77;;;11.60;86.90;;;;;;5036918;28;20691;-72
2022/09/20 07:06:44;;;;;;;7.00;1.77;;;11.70;86.50;;;;;;5054030;28;20127;-72
2022/09/20 07:09:11;;;;;;;4.63;1.20;;;11.70;86.60;;;;;;5053677;28;20302;-72
2022/09/20 07:11:36;;;;;;;5.43;0.90;;;11.80;86.50;;;;;;5053438;28;20044;-72
2022/09/20 07:14:02;;;;;;;4.07;0.80;;;11.80;86.00;;;;;;5070451;28;20735;-72
2022/09/20 07:16:28;;;;;;;7.20;1.00;;;11.90;86.10;;;;;;5068569;28;20036;-72
2022/09/20 07:18:55;;;;;;;6.23;1.23;;;11.90;86.00;;;;;;5071517;28;20044;-72
2022/09/20 07:21:21;;;;;;;5.57;1.37;;;11.90;85.60;;;;;;5088444;28;20043;-72
2022/09/20 07:23:48;;;;;;;6.60;0.70;;;11.90;84.60;;;;;;5068565;28;20305;-72
2022/09/20 07:26:27;;;;;;;5.97;0.90;;;11.90;84.50;;;;;;5048608;28;20278;-72
2022/09/20 07:28:54;;;;;;;6.57;1.07;;;11.90;84.50;;;;;;5070998;28;20310;-72
2022/09/20 07:31:22;;;;;;;6.70;1.00;;;11.90;84.40;;;;;;5090061;28;20270;-71
2022/09/20 07:33:48;;;;;;;5.63;0.80;;;11.90;84.40;;;;;;5070174;28;20274;-72
2022/09/20 07:36:15;;;;;;;6.97;1.00;;;11.80;84.50;;;;;;5084987;28;20278;-72
2022/09/20 07:38:42;;;;;;;3.50;0.70;;;11.70;84.30;;;;;;5083913;28;20298;-73
2022/09/20 07:41:08;;;;;;;4.73;0.93;;;11.70;84.30;;;;;;5074337;28;20376;-73
2022/09/20 07:43:35;;;;;;;6.50;0.87;;;11.60;84.60;;;;;;5065240;28;20343;-73
2022/09/20 07:46:01;;;;;;;3.90;0.70;;;11.60;84.80;;;;;;5085660;28;21199;-72
2022/09/20 07:48:33;;;;;;;4.40;0.87;;;11.60;84.50;;;;;;5066746;28;20317;-73
2022/09/20 07:51:08;;;;;;;11.20;0.80;;;11.60;84.50;;;;;;5087890;28;20032;-73
2022/09/20 07:53:35;;;;;;;5.47;1.02;;;11.70;84.40;;;;;;5086259;28;20815;-73
2022/09/20 07:56:14;;;;;;;9.17;1.07;;;11.70;83.90;;;;;;5070993;28;20044;-73
2022/09/20 07:58:40;;;;;;;4.73;0.50;;;11.90;83.50;;;;;;5085888;28;20277;-73
2022/09/20 08:01:09;;;;;;;7.00;0.57;;;12.10;83.60;;;;;;5083763;28;20290;-73
2022/09/20 08:03:35;;;;;;;5.93;0.60;;;12.30;83.10;;;;;;5066405;28;20289;-73
2022/09/20 08:06:07;;;;;;;9.07;1.10;;;12.40;82.60;;;;;;5081891;28;20725;-73
2022/09/20 08:08:35;;;;;;;8.80;0.80;;;12.60;81.30;;;;;;5080293;28;20348;-73
2022/09/20 08:11:10;;;;;;;6.20;0.87;;;12.80;80.40;;;;;;5082981;28;20296;-73
2022/09/20 08:13:37;;;;;;;3.50;0.50;;;13.00;80.10;;;;;;5083819;28;20289;-73
2022/09/20 08:16:06;;;;;;;3.37;0.53;;;13.10;79.40;;;;;;5048098;28;20148;-73
2022/09/20 08:18:33;;;;;;;3.00;0.47;;;13.30;79.00;;;;;;5065198;28;20290;-73
2022/09/20 08:21:05;;;;;;;4.50;0.73;;;13.50;76.40;;;;;;5043690;28;20294;-73
2022/09/20 08:23:36;;;;;;;5.43;0.73;;;13.60;74.90;;;;;;5073729;28;20398;-73
2022/09/20 08:26:03;;;;;;;3.17;0.47;;;13.80;74.70;;;;;;5082051;28;20293;-73
2022/09/20 08:28:30;;;;;;;4.70;0.30;;;14.00;74.10;;;;;;5065020;28;20306;-73
2022/09/20 08:31:06;;;;;;;4.40;0.40;;;14.30;73.90;;;;;;5067741;28;20274;-73
2022/09/20 08:33:32;;;;;;;2.63;0.30;;;14.50;72.30;;;;;;5083484;28;20692;-73
2022/09/20 08:35:58;;;;;;;3.07;0.73;;;14.80;72.60;;;;;;5080856;28;20274;-73
2022/09/20 08:38:26;;;;;;;3.53;0.50;;;15.20;72.10;;;;;;5076601;28;20653;-73
2022/09/20 08:41:25;;;;;;;4.47;0.33;;;15.50;72.10;;;;;;5067425;28;20282;-73
2022/09/20 08:43:59;;;;;;;4.87;0.57;;;15.80;69.70;;;;;;5080240;28;20281;-73
2022/09/20 08:46:28;;;;;;;4.07;0.40;;;15.70;67.90;;;;;;5082591;28;20270;-71
2022/09/20 08:48:56;;;;;;;5.97;0.30;;;15.50;68.40;;;;;;5071106;28;20355;-70
2022/09/20 08:51:28;;;;;;;1.83;0.30;;;15.40;69.70;;;;;;5067198;28;20321;-70
2022/09/20 08:53:55;;;;;;;4.93;0.33;;;15.10;69.70;;;;;;5068898;28;20282;-70
2022/09/20 08:56:21;;;;;;;6.93;0.70;;;15.00;70.50;;;;;;5064615;28;20663;-70
2022/09/20 08:58:47;;;;;;;8.17;1.20;;;14.90;71.00;;;;;;5058652;28;20364;-70
2022/09/20 09:01:23;;;;;;;3.47;0.40;;;14.90;72.00;;;;;;5072741;28;20335;-71
2022/09/20 09:04:13;;;;;;;4.30;0.50;;;15.00;72.60;;;;;;5079082;28;20380;-70
2022/09/20 09:06:40;;;;;;;4.00;0.40;;;15.00;72.80;;;;;;5071181;28;20289;-71
2022/09/20 09:09:07;;;;;;;9.57;1.03;;;15.20;73.40;;;;;;5048237;28;20309;-70
2022/09/20 09:11:33;;;;;;;2.37;0.60;;;15.30;72.80;;;;;;5066416;28;20289;-70
2022/09/20 09:14:03;;;;;;;3.63;0.40;;;15.30;72.20;;;;;;5068428;28;20853;-70
2022/09/20 09:16:33;;;;;;;3.37;0.30;;;15.40;72.00;;;;;;5084061;28;20336;-70
2022/09/20 09:19:26;;;;;;;4.37;0.37;;;15.50;71.30;;;;;;5080200;28;20294;-70
2022/09/20 09:22:00;;;;;;;5.90;0.33;;;15.50;70.20;;;;;;5074011;28;20778;-70
2022/09/20 09:24:26;;;;;;;3.83;0.40;;;15.60;70.50;;;;;;5091230;28;20294;-71
2022/09/20 09:27:12;;;;;;;3.77;0.33;;;15.60;70.40;;;;;;5078041;28;20918;-72
2022/09/20 09:29:54;;;;;;;7.80;0.60;;;15.70;69.70;;;;;;5085934;28;20135;-73
2022/09/20 09:32:23;;;;;;;2.60;0.77;;;15.70;68.30;;;;;;5067735;28;20469;-73
2022/09/20 09:34:48;;;;;;;5.13;0.60;;;15.70;69.40;;;;;;5091627;28;20292;-73
2022/09/20 09:37:27;;;;;;;4.63;0.40;;;15.70;67.30;;;;;;5082887;28;20619;-73
2022/09/20 09:40:16;;;;;;;2.40;0.50;;;15.60;66.50;;;;;;5084760;28;20508;-73
2022/09/20 09:42:57;;;;;;;3.23;0.63;;;15.80;66.50;;;;;;5084501;28;20767;-72
2022/09/20 09:45:26;;;;;;;2.43;0.30;;;16.10;67.30;;;;;;5072446;28;20533;-73
2022/09/20 09:47:53;;;;;;;3.93;1.00;;;16.40;63.30;;;;;;5083826;28;20371;-73
2022/09/20 09:50:26;;;;;;;3.27;0.50;;;16.50;62.60;;;;;;5069111;28;20649;-72
2022/09/20 09:53:09;;;;;;;5.07;0.53;;;16.50;63.30;;;;;;5073077;28;20278;-72
2022/09/20 09:55:53;;;;;;;4.43;0.30;;;16.40;62.90;;;;;;5087125;28;21033;-73
2022/09/20 09:58:48;;;;;;;3.23;0.60;;;16.40;62.20;;;;;;5055267;28;20642;-73
2022/09/20 10:01:38;;;;;;;4.35;0.30;;;16.50;63.90;;;;;;5078839;28;20635;-73
2022/09/20 10:04:18;;;;;;;4.20;0.30;;;16.50;64.10;;;;;;5084673;28;20072;-71
2022/09/20 10:07:04;;;;;;;6.83;0.30;;;16.50;63.70;;;;;;5087565;28;20285;-71
2022/09/20 10:09:55;;;;;;;2.97;0.30;;;16.40;63.50;;;;;;5063520;28;20298;-73
2022/09/20 10:12:25;;;;;;;4.70;0.53;;;16.20;62.50;;;;;;5083504;28;20265;-72
2022/09/20 10:15:16;;;;;;;6.73;0.57;;;16.10;64.60;;;;;;5095093;28;20367;-72
2022/09/20 10:17:45;;;;;;;3.97;0.40;;;15.90;66.60;;;;;;5087851;28;20269;-72
2022/09/20 10:20:51;;;;;;;6.30;1.07;;;15.80;67.90;;;;;;5084272;28;20781;-72
2022/09/20 10:23:43;;;;;;;4.13;0.93;;;15.70;68.70;;;;;;5095532;28;20765;-72
2022/09/20 10:26:27;;;;;;;6.23;0.60;;;15.60;69.60;;;;;;5060753;28;20287;-72
2022/09/20 10:29:11;;;;;;;4.07;0.70;;;15.50;70.40;;;;;;5068205;28;20306;-72
2022/09/20 10:32:19;;;;;;;5.40;0.50;;;15.40;70.70;;;;;;5063865;28;20789;-72
2022/09/20 10:34:58;;;;;;;5.83;0.40;;;15.30;70.40;;;;;;5061012;28;20301;-72
2022/09/20 10:37:32;;;;;;;3.60;0.30;;;15.30;70.60;;;;;;5082017;28;20654;-73
2022/09/20 10:40:08;;;;;;;3.80;1.05;;;15.20;70.30;;;;;;5086055;28;20742;-72
2022/09/20 10:45:48;;;;;;;5.20;0.40;;;15.20;70.60;;;;;;5073932;28;20290;-72
2022/09/20 10:48:22;;;;;;;3.50;0.30;;;15.20;70.90;;;;;;5084863;28;20310;-73
2022/09/20 10:50:59;;;;;;;5.47;0.40;;;15.20;70.80;;;;;;5064466;28;20782;-72
2022/09/20 10:54:01;;;;;;;5.77;0.30;;;15.30;71.00;;;;;;5082500;28;20286;-72
2022/09/20 10:56:33;;;;;;;3.07;0.40;;;15.40;68.80;;;;;;5039680;28;20282;-72
2022/09/20 10:59:16;;;;;;;2.90;0.33;;;15.40;69.00;;;;;;5088771;28;20376;-73
2022/09/20 11:02:02;;;;;;;4.17;0.50;;;15.40;68.70;;;;;;5079065;28;20282;-72
2022/09/20 11:04:54;;;;;;;2.77;0.30;;;15.40;68.70;;;;;;5065095;28;20286;-72
2022/09/20 11:07:23;;;;;;;1.73;0.53;;;15.50;66.80;;;;;;5064132;28;20317;-73
2022/09/20 11:09:56;;;;;;;4.00;0.50;;;15.50;67.20;;;;;;5091120;28;20294;-73
2022/09/20 11:12:38;;;;;;;3.17;0.30;;;15.60;67.10;;;;;;5091288;28;20278;-73
2022/09/20 11:15:42;;;;;;;4.77;0.63;;;15.80;66.30;;;;;;5088350;28;20273;-72
2022/09/20 11:18:23;;;;;;;2.20;0.17;;;16.00;64.70;;;;;;5083317;28;20289;-71
2022/09/20 11:21:22;;;;;;;4.30;0.37;;;16.40;65.00;;;;;;5083753;28;20849;-72
2022/09/20 11:24:12;;;;;;;5.53;0.60;;;16.60;64.50;;;;;;5058669;28;20297;-72
2022/09/20 11:26:45;;;;;;;5.30;0.30;;;16.70;62.50;;;;;;5091510;28;20829;-72
2022/09/20 11:29:25;;;;;;;1.90;0.20;;;16.90;63.00;;;;;;5069271;28;20302;-72
2022/09/20 11:31:55;;;;;;;5.00;0.40;;;17.10;61.10;;;;;;5085789;28;20349;-72
2022/09/20 11:35:04;;;;;;;5.07;0.63;;;16.90;63.20;;;;;;5076092;28;20826;-72
2022/09/20 11:37:35;;;;;;;4.00;0.30;;;16.60;64.00;;;;;;5005475;28;20300;-72
2022/09/20 11:40:23;;;;;;;6.33;0.53;;;16.30;65.40;;;;;;4994758;28;20292;-72
2022/09/20 11:42:51;;;;;;;3.73;0.40;;;16.20;65.40;;;;;;5055007;28;20278;-72
2022/09/20 11:45:18;;;;;;;1.93;0.30;;;16.00;66.40;;;;;;5067192;28;20289;-72
2022/09/20 11:47:53;;;;;;;4.90;0.63;;;16.00;65.80;;;;;;5082459;28;20348;-72
2022/09/20 11:50:57;;;;;;;2.65;0.30;;;15.80;65.80;;;;;;5083304;28;20615;-73
2022/09/20 11:53:32;;;;;;;4.70;0.30;;;15.70;67.00;;;;;;5086379;28;20036;-72
2022/09/20 11:56:19;;;;;;;5.07;0.25;;;15.70;66.50;;;;;;5080875;28;20673;-72
2022/09/20 11:58:49;;;;;;;6.57;0.50;;;15.70;65.10;;;;;;5082895;28;20039;-73
2022/09/20 12:01:24;;;;;;;5.37;0.50;;;15.70;65.80;;;;;;5082809;28;20367;-72
2022/09/20 12:03:53;;;;;;;3.77;0.70;;;15.90;65.90;;;;;;5082301;28;20286;-72
2022/09/20 12:06:24;;;;;;;4.73;0.40;;;16.00;64.20;;;;;;5082585;28;20317;-72
2022/09/20 12:08:51;;;;;;;3.47;0.30;;;16.00;64.00;;;;;;5082775;28;20354;-72
2022/09/20 12:11:28;;;;;;;2.17;0.20;;;16.10;63.40;;;;;;5083431;28;20329;-72
2022/09/20 12:14:04;;;;;;;2.73;0.30;;;16.20;61.90;;;;;;5084242;28;20447;-72
2022/09/20 12:16:45;;;;;;;1.93;0.30;;;16.40;62.80;;;;;;5065202;28;20684;-72
2022/09/20 12:19:35;;;;;;;1.77;0.20;;;16.50;60.30;;;;;;5080324;28;20689;-72
2022/09/20 12:22:02;;;;;;;4.60;0.43;;;16.60;59.50;;;;;;5082922;28;20640;-72
2022/09/20 12:24:34;;;;;;;2.70;0.30;;;16.80;60.60;;;;;;5087379;28;20394;-72
2022/09/20 12:27:20;;;;;;;2.83;0.40;;;16.90;60.60;;;;;;5065939;28;20345;-72
2022/09/20 12:29:49;;;;;;;5.70;0.40;;;17.00;59.00;;;;;;5069611;28;20643;-72
2022/09/20 12:32:40;;;;;;;3.40;0.40;;;17.10;59.40;;;;;;5072154;28;20349;-72
2022/09/20 12:35:37;;;;;;;4.27;0.70;;;17.10;58.90;;;;;;5069073;28;20888;-72
2022/09/20 12:38:18;;;;;;;2.93;0.33;;;17.20;58.60;;;;;;5084302;28;20289;-73
2022/09/20 12:41:12;;;;;;;7.10;0.40;;;17.30;59.10;;;;;;5086576;28;20642;-72
2022/09/20 12:43:49;;;;;;;2.67;0.30;;;17.40;57.80;;;;;;5069120;28;20562;-73
2022/09/20 12:46:28;;;;;;;3.63;0.43;;;17.40;57.80;;;;;;5087273;28;20328;-72
2022/09/20 12:55:11;;;;;;;3.90;0.20;;;17.30;57.50;;;;;;5079952;28;20279;-72
2022/09/20 12:57:39;;;;;;;3.90;0.37;;;17.20;58.10;;;;;;5086666;28;20845;-72
2022/09/20 13:00:07;;;;;;;2.37;0.30;;;17.30;58.10;;;;;;5065582;28;20278;-72
2022/09/20 13:02:51;;;;;;;3.77;0.20;;;17.30;58.30;;;;;;5051518;28;20282;-72
2022/09/20 13:05:32;;;;;;;3.50;0.53;;;17.40;57.90;;;;;;5083644;28;20282;-72
2022/09/20 13:08:22;;;;;;;3.57;0.40;;;17.40;58.20;;;;;;5083285;28;20773;-72
2022/09/20 13:11:06;;;;;;;4.07;0.57;;;17.40;57.00;;;;;;5083910;28;20338;-72
2022/09/20 13:13:43;;;;;;;4.93;0.40;;;17.50;57.40;;;;;;5083686;28;20278;-72
2022/09/20 13:16:34;;;;;;;3.27;0.40;;;17.70;56.50;;;;;;5085030;28;20904;-72
2022/09/20 13:19:05;;;;;;;3.27;0.57;;;17.80;55.20;;;;;;5040674;28;20274;-72
2022/09/20 13:21:39;;;;;;;5.27;0.73;;;18.00;54.90;;;;;;5065798;28;20282;-72
2022/09/20 13:24:07;;;;;;;2.57;0.30;;;18.00;54.90;;;;;;5083735;28;20636;-72
2022/09/20 13:26:40;;;;;;;4.70;0.57;;;17.80;53.90;;;;;;5084253;28;20286;-71
2022/09/20 13:29:28;;;;;;;2.50;0.50;;;17.40;52.00;;;;;;5083714;28;20325;-71
2022/09/20 13:31:55;;;;;;;3.27;0.53;;;17.10;53.50;;;;;;5079166;28;20361;-71
2022/09/20 13:34:24;;;;;;;3.17;0.30;;;17.10;53.90;;;;;;5085704;28;20265;-72
2022/09/20 13:36:57;;;;;;;4.23;0.30;;;17.30;53.40;;;;;;5066067;28;20274;-72
2022/09/20 13:39:34;;;;;;;2.90;0.33;;;17.40;53.70;;;;;;5068687;28;21681;-72
2022/09/20 13:42:07;;;;;;;4.57;0.33;;;17.50;51.90;;;;;;5086074;28;20282;-72
2022/09/20 13:44:33;;;;;;;4.30;0.63;;;17.60;52.80;;;;;;5082522;28;20308;-72
2022/09/20 13:46:59;;;;;;;5.40;0.40;;;17.80;53.10;;;;;;5035481;28;20290;-72
2022/09/20 13:49:31;;;;;;;4.63;0.40;;;18.00;52.30;;;;;;5083962;28;20407;-71
2022/09/20 13:51:57;;;;;;;1.57;0.27;;;18.00;52.20;;;;;;5083766;28;20270;-71
2022/09/20 13:54:31;;;;;;;2.97;0.20;;;17.90;51.60;;;;;;5053970;28;20266;-71
2022/09/20 13:57:00;;;;;;;2.07;0.30;;;17.80;52.80;;;;;;5067619;28;20270;-72
2022/09/20 13:59:32;;;;;;;1.90;0.30;;;17.90;53.20;;;;;;5084517;28;20266;-71
2022/09/20 14:01:58;;;;;;;2.10;0.40;;;17.90;51.90;;;;;;5066504;28;20290;-72
2022/09/20 14:04:27;;;;;;;3.63;0.30;;;17.80;52.60;;;;;;5050654;28;20811;-72
2022/09/20 14:06:56;;;;;;;5.83;0.67;;;17.90;52.40;;;;;;5084827;28;20375;-72
2022/09/20 14:09:38;;;;;;;2.13;0.33;;;18.10;52.80;;;;;;5067017;28;20301;-72